Time;durP1;ratioP1;P1;durP2;ratioP2;P2;SDS_P1;SDS_P2;PMS_P1;PMS_P2;Temp;Humidity;BMP_temperature;BMP_pressure;BME280_temperature;BME280_humidity;BME280_pressure;Samples;Min_cycle;Max_cycle;Signal;HPM_P1;HPM_P2
2024/01/14 00:01:55;;;;;;;;;75.33;56.00;;;;;0.54;100.00;101759.50;5003051;28;51572;-72
2024/01/14 00:04:21;;;;;;;;;79.00;57.33;;;;;-0.07;100.00;101657.56;4978931;28;45461;-72
2024/01/14 00:06:46;;;;;;;;;76.00;56.67;;;;;0.29;100.00;101702.00;4980540;28;45578;-72
2024/01/14 00:09:12;;;;;;;;;64.00;53.33;;;;;0.41;100.00;101723.78;4979639;28;45389;-72
2024/01/14 00:11:38;;;;;;;;;73.00;58.00;;;;;0.22;100.00;101693.72;4995467;28;45576;-72
2024/01/14 00:14:04;;;;;;;;;77.67;55.67;;;;;0.29;100.00;101708.09;4979589;28;45442;-72
2024/01/14 00:16:34;;;;;;;;;78.67;55.33;;;;;0.02;100.00;101661.69;4979314;28;46749;-72
2024/01/14 00:19:03;;;;;;;;;73.67;55.33;;;;;0.29;100.00;101692.50;4977361;28;45235;-72
2024/01/14 00:21:28;;;;;;;;;61.00;51.00;;;;;0.44;100.00;101713.63;4979953;28;45366;-72
2024/01/14 00:23:53;;;;;;;;;75.33;49.67;;;;;0.39;100.00;101697.66;4975862;28;45370;-72
2024/01/14 00:26:20;;;;;;;;;79.33;55.00;;;;;0.30;100.00;101667.41;4981191;28;45505;-72
2024/01/14 00:28:46;;;;;;;;;69.33;52.33;;;;;0.40;100.00;101681.25;4977905;28;45453;-72
2024/01/14 00:31:11;;;;;;;;;83.33;56.33;;;;;0.38;100.00;101663.72;4977185;28;45239;-72
2024/01/14 00:33:36;;;;;;;;;69.33;54.33;;;;;0.44;100.00;101666.81;4975296;28;59967;-72
2024/01/14 00:36:03;;;;;;;;;76.67;58.33;;;;;0.54;100.00;101682.34;4979520;28;61383;-72
2024/01/14 00:38:28;;;;;;;;;77.33;57.67;;;;;0.60;100.00;101688.03;4976838;28;45309;-72
2024/01/14 00:40:54;;;;;;;;;71.67;55.00;;;;;0.44;100.00;101653.78;4979820;28;45975;-72
2024/01/14 00:43:19;;;;;;;;;69.33;50.33;;;;;0.35;100.00;101645.28;4977924;28;45447;-72
2024/01/14 00:45:45;;;;;;;;;73.00;53.67;;;;;0.34;100.00;101639.19;4977804;28;50171;-72
2024/01/14 00:48:10;;;;;;;;;66.67;54.67;;;;;0.39;100.00;101640.47;4978202;28;52358;-72
2024/01/14 00:50:35;;;;;;;;;80.00;59.67;;;;;0.31;100.00;101625.00;4979301;28;45254;-72
2024/01/14 00:53:01;;;;;;;;;69.33;52.67;;;;;0.57;100.00;101663.47;4979307;28;45508;-72
2024/01/14 00:55:26;;;;;;;;;71.67;54.33;;;;;0.35;100.00;101619.28;4973834;28;60174;-72
2024/01/14 00:57:51;;;;;;;;;69.00;47.00;;;;;0.46;100.00;101639.22;4979151;28;54158;-72
2024/01/14 01:00:17;;;;;;;;;80.67;56.00;;;;;0.49;100.00;101638.56;4991120;28;62714;-72
2024/01/14 01:02:42;;;;;;;;;66.33;48.67;;;;;0.33;100.00;101611.34;4986948;28;45958;-72
2024/01/14 01:05:08;;;;;;;;;74.67;54.67;;;;;0.52;100.00;101652.69;4978454;28;45182;-72
2024/01/14 01:07:34;;;;;;;;;68.00;51.00;;;;;0.36;100.00;101610.69;4979227;28;45697;-72
2024/01/14 01:09:59;;;;;;;;;68.00;49.67;;;;;0.48;100.00;101626.31;4978505;28;45312;-72
2024/01/14 01:12:24;;;;;;;;;67.00;51.67;;;;;0.35;100.00;101614.97;4981016;28;45319;-72
2024/01/14 01:14:50;;;;;;;;;74.33;55.00;;;;;0.39;100.00;101632.66;4971284;28;45340;-72
2024/01/14 01:17:15;;;;;;;;;77.33;58.67;;;;;0.47;100.00;101651.44;4995694;28;45447;-72
2024/01/14 01:19:41;;;;;;;;;67.33;50.67;;;;;0.27;100.00;101622.97;4970116;28;45465;-72
2024/01/14 01:22:06;;;;;;;;;69.33;48.67;;;;;0.34;100.00;101640.88;4980237;28;45682;-72
2024/01/14 01:24:31;;;;;;;;;70.00;50.00;;;;;0.38;100.00;101636.00;4974744;28;47606;-72
2024/01/14 01:26:56;;;;;;;;;78.33;56.67;;;;;0.27;100.00;101609.97;4980322;28;45448;-72
2024/01/14 01:29:22;;;;;;;;;68.67;53.00;;;;;0.45;100.00;101658.22;4975569;28;45457;-72
2024/01/14 01:31:47;;;;;;;;;71.00;52.67;;;;;0.24;100.00;101605.44;4979932;28;53474;-72
2024/01/14 01:34:12;;;;;;;;;70.67;54.33;;;;;0.41;100.00;101622.34;4973134;28;64187;-72
2024/01/14 01:36:38;;;;;;;;;76.67;56.33;;;;;0.46;100.00;101630.53;4979956;28;48878;-72
2024/01/14 01:39:03;;;;;;;;;76.67;55.00;;;;;0.26;100.00;101579.56;4974229;28;44770;-72
2024/01/14 01:41:28;;;;;;;;;62.00;50.67;;;;;0.38;100.00;101601.31;4979913;28;45409;-72
2024/01/14 01:43:53;;;;;;;;;69.33;53.33;;;;;0.41;100.00;101607.66;4974030;28;46643;-72
2024/01/14 01:46:19;;;;;;;;;61.67;45.33;;;;;0.44;100.00;101618.28;4994959;28;45203;-72
2024/01/14 01:48:46;;;;;;;;;69.00;50.33;;;;;0.44;100.00;101604.38;4974163;28;45322;-72
2024/01/14 01:51:12;;;;;;;;;65.00;49.00;;;;;0.42;100.00;101592.94;4979953;28;45435;-72
2024/01/14 01:53:37;;;;;;;;;76.67;55.00;;;;;0.51;100.00;101604.09;4974577;28;45696;-72
2024/01/14 01:56:04;;;;;;;;;54.33;41.67;;;;;0.41;100.00;101580.75;4975798;28;45333;-72
2024/01/14 01:58:29;;;;;;;;;70.67;49.67;;;;;0.57;100.00;101614.97;4974711;28;45543;-72
2024/01/14 02:00:55;;;;;;;;;67.33;49.67;;;;;0.59;100.00;101602.09;4980756;28;45748;-72
2024/01/14 02:03:21;;;;;;;;;67.67;50.67;;;;;0.40;100.00;101563.34;4976900;28;46848;-72
2024/01/14 02:05:49;;;;;;;;;71.67;52.00;;;;;0.61;100.00;101603.09;4977964;28;45311;-72
2024/01/14 02:08:15;;;;;;;;;69.00;48.67;;;;;0.53;100.00;101584.28;4976628;28;46576;-72
2024/01/14 02:10:40;;;;;;;;;61.33;46.67;;;;;0.51;100.00;101585.88;4978569;28;45758;-72
2024/01/14 02:13:06;;;;;;;;;65.67;48.67;;;;;0.45;100.00;101575.00;4977732;28;50845;-72
2024/01/14 02:15:31;;;;;;;;;65.67;43.33;;;;;0.40;100.00;101565.94;4991249;28;45216;-72
2024/01/14 02:17:56;;;;;;;;;65.67;47.33;;;;;0.46;100.00;101582.00;4977738;28;45233;-72
2024/01/14 02:20:22;;;;;;;;;69.67;52.67;;;;;0.42;100.00;101573.06;4973564;28;45506;-72
2024/01/14 02:22:50;;;;;;;;;76.33;52.33;;;;;0.44;100.00;101574.06;4979060;28;46259;-72
2024/01/14 02:25:15;;;;;;;;;68.00;50.33;;;;;0.39;100.00;101558.91;4974646;28;45307;-72
2024/01/14 02:27:41;;;;;;;;;72.33;50.67;;;;;0.50;100.00;101577.94;4979371;28;45326;-72
2024/01/14 02:30:09;;;;;;;;;59.00;45.67;;;;;0.43;100.00;101560.97;4973031;28;45366;-72
2024/01/14 02:32:38;;;;;;;;;72.67;52.33;;;;;0.32;100.00;101546.22;4979513;28;45837;-72
2024/01/14 02:35:05;;;;;;;;;69.67;51.67;;;;;0.27;100.00;101535.47;4976802;28;45345;-72
2024/01/14 02:37:30;;;;;;;;;73.00;52.67;;;;;0.44;100.00;101563.66;4979685;28;45278;-72
2024/01/14 02:39:55;;;;;;;;;68.00;50.00;;;;;0.39;100.00;101562.44;4973919;28;45743;-72
2024/01/14 02:42:21;;;;;;;;;65.33;50.67;;;;;0.08;100.00;101514.94;4993928;28;63319;-72
2024/01/14 02:44:46;;;;;;;;;68.67;48.00;;;;;0.28;100.00;101541.56;4974553;28;45243;-72
2024/01/14 02:47:12;;;;;;;;;69.33;50.00;;;;;0.11;100.00;101511.66;4979513;28;45232;-72
2024/01/14 02:49:37;;;;;;;;;72.67;49.67;;;;;0.22;100.00;101532.53;4973366;28;45233;-72
2024/01/14 02:52:02;;;;;;;;;64.33;44.00;;;;;0.17;100.00;101536.47;4978709;28;54501;-72
2024/01/14 02:54:28;;;;;;;;;65.33;50.00;;;;;0.18;100.00;101533.06;4976382;28;45334;-72
2024/01/14 02:56:53;;;;;;;;;71.00;50.33;;;;;0.03;100.00;101512.75;4978880;28;46059;-71
2024/01/14 02:59:18;;;;;;;;;74.00;50.67;;;;;0.21;100.00;101545.41;4970167;28;46002;-72
2024/01/14 03:01:47;;;;;;;;;60.33;47.00;;;;;0.12;100.00;101522.19;4979334;28;48094;-72
2024/01/14 03:04:13;;;;;;;;;69.00;50.00;;;;;0.18;100.00;101548.66;4974857;28;44834;-72
2024/01/14 03:06:38;;;;;;;;;61.33;45.67;;;;;-0.13;100.00;101482.09;4978837;28;45281;-72
2024/01/14 03:09:06;;;;;;;;;65.00;51.33;;;;;0.10;100.00;101528.06;4975445;28;45343;-72
2024/01/14 03:11:32;;;;;;;;;68.33;49.67;;;;;0.13;100.00;101533.50;4980303;28;45318;-72
2024/01/14 03:13:58;;;;;;;;;60.00;44.33;;;;;0.03;100.00;101518.91;4975077;28;45359;-72
2024/01/14 03:16:23;;;;;;;;;70.33;52.67;;;;;0.02;100.00;101506.66;4974738;28;45251;-72
2024/01/14 03:18:48;;;;;;;;;65.67;45.00;;;;;0.03;100.00;101524.09;4975797;28;49472;-72
2024/01/14 03:21:18;;;;;;;;;65.67;47.00;;;;;0.04;100.00;101525.91;4980592;28;45427;-72
2024/01/14 03:23:44;;;;;;;;;55.67;45.33;;;;;0.02;100.00;101524.84;4977099;28;45278;-72
2024/01/14 03:26:09;;;;;;;;;66.67;48.00;;;;;0.10;100.00;101533.25;4981540;28;45397;-72
2024/01/14 03:28:34;;;;;;;;;64.00;49.33;;;;;-0.10;100.00;101501.44;4978452;28;45438;-72
2024/01/14 03:31:00;;;;;;;;;65.00;48.00;;;;;0.05;100.00;101535.50;4992835;28;56643;-72
2024/01/14 03:33:26;;;;;;;;;69.67;49.67;;;;;-0.02;100.00;101528.03;4977227;28;45849;-72
2024/01/14 03:35:51;;;;;;;;;70.67;52.67;;;;;-0.03;100.00;101521.94;4979739;28;45355;-72
2024/01/14 03:38:17;;;;;;;;;73.33;50.00;;;;;-0.12;100.00;101509.88;4979371;28;45418;-72
2024/01/14 03:40:42;;;;;;;;;73.67;53.67;;;;;-0.11;100.00;101512.63;4978379;28;45588;-72
2024/01/14 03:43:07;;;;;;;;;57.67;46.00;;;;;-0.26;100.00;101488.03;4978946;28;44696;-72
2024/01/14 03:45:33;;;;;;;;;75.67;51.33;;;;;-0.25;100.00;101503.75;4980047;28;45340;-72
2024/01/14 03:47:58;;;;;;;;;56.00;45.00;;;;;-0.14;100.00;101516.66;4979348;28;45326;-72
2024/01/14 03:50:23;;;;;;;;;69.33;50.67;;;;;-0.50;100.00;101466.22;4993479;28;54360;-72
2024/01/14 03:52:49;;;;;;;;;53.33;44.67;;;;;-0.19;100.00;101507.63;4996259;28;45328;-72
2024/01/14 03:55:14;;;;;;;;;63.00;44.67;;;;;-0.24;100.00;101500.34;4976444;28;45888;-72
2024/01/14 03:57:39;;;;;;;;;64.33;43.33;;;;;-0.21;100.00;101497.09;4981549;28;45424;-72
2024/01/14 04:00:07;;;;;;;;;64.33;46.67;;;;;-0.38;100.00;101461.09;4977105;28;45333;-72
2024/01/14 04:02:32;;;;;;;;;68.00;46.00;;;;;-0.20;100.00;101490.19;4982573;28;44867;-72
2024/01/14 04:04:57;;;;;;;;;65.67;48.00;;;;;-0.29;100.00;101480.88;4978276;28;45492;-72
2024/01/14 04:07:23;;;;;;;;;76.67;51.00;;;;;-0.41;100.00;101450.47;4981233;28;45330;-72
2024/01/14 04:09:48;;;;;;;;;61.00;49.67;;;;;-0.29;100.00;101474.78;4979052;28;46545;-72
2024/01/14 04:12:14;;;;;;;;;62.67;45.67;;;;;-0.46;100.00;101437.09;4981192;28;45310;-72
2024/01/14 04:14:39;;;;;;;;;68.00;48.33;;;;;-0.55;100.00;101415.63;4979739;28;46018;-72
2024/01/14 04:17:04;;;;;;;;;67.33;52.00;;;;;-0.34;100.00;101439.75;4981150;28;45333;-72
2024/01/14 04:19:30;;;;;;;;;66.67;48.33;;;;;-0.36;100.00;101439.66;4979149;28;45471;-72
2024/01/14 04:21:55;;;;;;;;;55.33;44.67;;;;;-0.20;100.00;101459.91;4981060;28;45298;-72
2024/01/14 04:24:20;;;;;;;;;64.67;50.00;;;;;-0.44;100.00;101434.66;4976512;28;45257;-72
2024/01/14 04:26:46;;;;;;;;;58.00;45.33;;;;;-0.42;100.00;101435.66;4980771;28;53890;-72
2024/01/14 04:29:12;;;;;;;;;55.00;44.67;;;;;-0.42;100.00;101439.19;4978153;28;46571;-72
2024/01/14 04:31:37;;;;;;;;;65.00;49.33;;;;;-0.56;100.00;101424.19;4981183;28;49566;-72
2024/01/14 04:34:03;;;;;;;;;75.00;55.00;;;;;-0.55;100.00;101433.81;4978621;28;45372;-72
2024/01/14 04:36:29;;;;;;;;;47.33;34.00;;;;;-0.40;100.00;101457.47;4981768;28;45245;-72
2024/01/14 04:38:55;;;;;;;;;79.67;49.67;;;;;-0.67;100.00;101410.38;4978464;28;45230;-72
2024/01/14 04:41:20;;;;;;;;;63.00;45.67;;;;;-0.38;100.00;101456.81;4980945;28;45207;-72
2024/01/14 04:43:45;;;;;;;;;66.00;49.00;;;;;-0.50;100.00;101438.56;4979284;28;45405;-72
2024/01/14 04:46:11;;;;;;;;;71.67;52.33;;;;;-0.38;100.00;101454.19;4979073;28;45431;-72
2024/01/14 04:48:36;;;;;;;;;54.33;42.33;;;;;-0.41;100.00;101435.78;4976202;28;45269;-72
2024/01/14 04:51:02;;;;;;;;;61.33;46.00;;;;;-0.33;100.00;101451.97;4979404;28;45326;-72
2024/01/14 04:53:27;;;;;;;;;60.67;46.33;;;;;-0.36;100.00;101443.94;4976669;28;45823;-72
2024/01/14 04:55:53;;;;;;;;;58.67;47.00;;;;;-0.37;100.00;101434.31;4980748;28;45412;-72
2024/01/14 04:58:19;;;;;;;;;64.00;47.67;;;;;-0.37;100.00;101439.53;4976914;28;47489;-72
2024/01/14 05:00:44;;;;;;;;;50.67;42.33;;;;;-0.36;100.00;101447.44;4980247;28;45491;-72
2024/01/14 05:03:10;;;;;;;;;70.00;51.33;;;;;-0.60;100.00;101412.66;4979704;28;45491;-72
2024/01/14 05:05:35;;;;;;;;;58.33;45.33;;;;;-0.40;100.00;101452.28;4984400;28;45329;-72
2024/01/14 05:08:00;;;;;;;;;67.00;49.33;;;;;-0.32;100.00;101452.06;4978215;28;51109;-72
2024/01/14 05:10:26;;;;;;;;;71.67;50.67;;;;;-0.46;100.00;101418.94;4979935;28;48946;-72
2024/01/14 05:12:51;;;;;;;;;69.33;49.00;;;;;-0.47;100.00;101417.13;4979998;28;45580;-72
2024/01/14 05:15:16;;;;;;;;;58.00;47.67;;;;;-0.40;100.00;101447.06;4978549;28;45338;-72
2024/01/14 05:17:42;;;;;;;;;69.33;51.67;;;;;-0.41;100.00;101429.69;4980477;28;47561;-72
2024/01/14 05:20:09;;;;;;;;;63.67;49.00;;;;;-0.50;100.00;101417.81;4979097;28;44762;-72
2024/01/14 05:22:34;;;;;;;;;68.33;46.33;;;;;-0.39;100.00;101441.09;4995585;28;45475;-72
2024/01/14 05:24:59;;;;;;;;;57.67;46.00;;;;;-0.63;100.00;101395.94;4976957;28;44707;-72
2024/01/14 05:27:25;;;;;;;;;74.00;53.00;;;;;-0.59;100.00;101413.56;4996056;28;47335;-72
2024/01/14 05:29:50;;;;;;;;;69.00;51.33;;;;;-0.62;100.00;101398.63;4987886;28;46779;-72
2024/01/14 05:32:16;;;;;;;;;64.67;49.33;;;;;-0.64;100.00;101387.25;4979613;28;45486;-72
2024/01/14 05:34:42;;;;;;;;;56.67;43.67;;;;;-0.50;100.00;101409.09;4978636;28;45233;-72
2024/01/14 05:37:08;;;;;;;;;67.67;49.33;;;;;-0.47;100.00;101417.13;4979276;28;46799;-72
2024/01/14 05:39:34;;;;;;;;;69.33;49.67;;;;;-0.37;100.00;101432.63;4974955;28;45453;-72
2024/01/14 05:42:00;;;;;;;;;73.67;50.67;;;;;-0.66;100.00;101383.63;4978923;28;45374;-72
2024/01/14 05:44:25;;;;;;;;;62.67;46.00;;;;;-0.28;100.00;101440.22;4976932;28;45423;-72
2024/01/14 05:46:51;;;;;;;;;73.67;51.33;;;;;-0.33;100.00;101420.81;4980195;28;45318;-72
2024/01/14 05:49:17;;;;;;;;;67.00;46.33;;;;;-0.43;100.00;101403.59;4977888;28;44763;-72
2024/01/14 05:51:42;;;;;;;;;70.67;50.67;;;;;-0.25;100.00;101437.91;4980027;28;45434;-72
2024/01/14 05:54:08;;;;;;;;;63.33;44.00;;;;;-0.40;100.00;101410.72;4974407;28;52998;-73
2024/01/14 05:56:34;;;;;;;;;52.00;37.33;;;;;-0.33;100.00;101429.50;4994702;28;45688;-72
2024/01/14 05:59:00;;;;;;;;;72.00;50.67;;;;;-0.49;100.00;101400.53;4976513;28;45422;-72
2024/01/14 06:01:27;;;;;;;;;68.33;49.00;;;;;-0.25;100.00;101440.50;4982019;28;45231;-72
2024/01/14 06:03:52;;;;;;;;;67.00;51.33;;;;;-0.48;100.00;101395.47;4975305;28;45498;-72
2024/01/14 06:06:17;;;;;;;;;63.33;48.67;;;;;-0.77;100.00;101343.84;4976689;28;45596;-72
2024/01/14 06:08:43;;;;;;;;;65.00;46.33;;;;;-0.25;100.00;101437.91;4977792;28;45369;-72
2024/01/14 06:11:08;;;;;;;;;71.33;57.33;;;;;-0.37;100.00;101416.16;4979773;28;45408;-72
2024/01/14 06:13:33;;;;;;;;;62.00;43.00;;;;;-0.56;100.00;101378.38;4976243;28;48462;-72
2024/01/14 06:15:59;;;;;;;;;66.00;49.67;;;;;-0.64;100.00;101370.75;4979103;28;54181;-72
2024/01/14 06:18:25;;;;;;;;;63.33;45.00;;;;;-0.29;100.00;101423.75;4977456;28;45610;-73
2024/01/14 06:20:50;;;;;;;;;65.33;45.67;;;;;-0.54;100.00;101392.34;4979279;28;44775;-72
2024/01/14 06:23:16;;;;;;;;;65.33;48.67;;;;;-0.33;100.00;101424.31;4975275;28;45437;-73
2024/01/14 06:25:41;;;;;;;;;29.00;13.67;;;;;-0.37;100.00;101417.03;4977188;28;46127;-72
2024/01/14 06:28:07;;;;;;;;;62.00;46.00;;;;;-0.43;100.00;101398.41;4977611;28;45316;-72
2024/01/14 06:30:33;;;;;;;;;75.33;55.00;;;;;-0.35;100.00;101414.59;4987959;28;45492;-72
2024/01/14 06:32:59;;;;;;;;;72.33;50.67;;;;;-0.31;100.00;101406.22;4977914;28;44755;-72
2024/01/14 06:35:24;;;;;;;;;69.00;50.00;;;;;-0.21;100.00;101413.06;4976630;28;45563;-72
2024/01/14 06:37:50;;;;;;;;;71.00;50.67;;;;;-0.25;100.00;101405.03;4978659;28;45369;-71
2024/01/14 06:40:16;;;;;;;;;56.33;43.00;;;;;-0.26;100.00;101403.19;4967178;28;45406;-72
2024/01/14 06:42:41;;;;;;;;;65.67;47.00;;;;;-0.24;100.00;101396.44;4981606;28;46242;-71
2024/01/14 06:45:08;;;;;;;;;72.00;52.33;;;;;-0.35;100.00;101386.91;4975670;28;52218;-72
2024/01/14 06:47:34;;;;;;;;;52.67;41.33;;;;;-0.24;100.00;101400.72;4982166;28;45409;-72
2024/01/14 06:49:59;;;;;;;;;69.33;48.00;;;;;-0.20;100.00;101402.75;4977011;28;45334;-71
2024/01/14 06:52:24;;;;;;;;;65.67;52.00;;;;;-0.37;100.00;101383.28;4997523;28;45717;-72
2024/01/14 06:54:50;;;;;;;;;70.00;52.33;;;;;-0.17;100.00;101417.69;4977962;28;47194;-71
2024/01/14 06:57:15;;;;;;;;;65.00;45.33;;;;;-0.28;100.00;101409.06;4981314;28;45338;-72
2024/01/14 06:59:42;;;;;;;;;70.33;50.67;;;;;-0.22;100.00;101409.56;4979647;28;45316;-72
2024/01/14 07:02:08;;;;;;;;;66.67;51.33;;;;;-0.18;100.00;101410.69;4983240;28;45549;-72
2024/01/14 07:04:34;;;;;;;;;64.00;46.67;;;;;-0.20;100.00;101404.47;4979224;28;45334;-71
2024/01/14 07:06:59;;;;;;;;;48.00;39.00;;;;;-0.30;100.00;101387.28;4980327;28;45568;-71
2024/01/14 07:09:24;;;;;;;;;68.33;47.67;;;;;-0.21;100.00;101394.88;4980319;28;45405;-71
2024/01/14 07:11:50;;;;;;;;;56.33;45.00;;;;;-0.29;100.00;101371.78;4982464;28;45777;-71
2024/01/14 07:14:15;;;;;;;;;62.33;46.00;;;;;-0.27;100.00;101371.94;4980367;28;49397;-72
2024/01/14 07:16:40;;;;;;;;;73.33;51.67;;;;;-0.20;100.00;101389.78;4980427;28;52901;-71
2024/01/14 07:19:06;;;;;;;;;61.33;48.00;;;;;-0.32;100.00;101365.47;4980335;28;45156;-71
2024/01/14 07:21:31;;;;;;;;;63.00;48.33;;;;;-0.18;100.00;101384.72;4980912;28;45296;-71
2024/01/14 07:23:57;;;;;;;;;65.00;50.67;;;;;-0.30;100.00;101374.28;4978153;28;45397;-71
2024/01/14 07:26:23;;;;;;;;;66.67;51.67;;;;;-0.36;100.00;101371.22;4982117;28;45258;-71
2024/01/14 07:28:48;;;;;;;;;65.33;47.33;;;;;-0.38;100.00;101363.31;4979213;28;45567;-71
2024/01/14 07:31:20;;;;;;;;;67.67;50.33;;;;;-0.15;100.00;101401.44;4977410;28;45864;-71
2024/01/14 07:33:46;;;;;;;;;76.00;53.33;;;;;-0.18;100.00;101390.81;4979482;28;45480;-71
2024/01/14 07:36:12;;;;;;;;;77.33;53.00;;;;;-0.19;100.00;101377.72;4981762;28;45179;-71
2024/01/14 07:38:37;;;;;;;;;56.67;43.67;;;;;-0.14;100.00;101395.47;4980150;28;45358;-71
2024/01/14 07:41:05;;;;;;;;;71.00;52.67;;;;;-0.18;100.00;101398.59;4979235;28;45442;-71
2024/01/14 07:43:30;;;;;;;;;69.00;50.67;;;;;-0.34;100.00;101386.13;4980112;28;45684;-71
2024/01/14 07:45:55;;;;;;;;;70.33;46.33;;;;;-0.38;100.00;101378.00;4980452;28;45238;-71
2024/01/14 07:48:21;;;;;;;;;67.00;46.00;;;;;-0.33;100.00;101384.44;4980740;28;45184;-71
2024/01/14 07:50:46;;;;;;;;;69.33;49.00;;;;;-0.30;100.00;101371.69;4977788;28;45317;-72
2024/01/14 07:53:13;;;;;;;;;63.67;46.33;;;;;-0.33;100.00;101358.47;4977612;28;55153;-72
2024/01/14 07:55:38;;;;;;;;;70.00;47.33;;;;;-0.32;100.00;101368.06;4978401;28;45350;-73
2024/01/14 07:58:03;;;;;;;;;62.00;47.33;;;;;-0.23;100.00;101382.66;4978653;28;45211;-73
2024/01/14 08:00:29;;;;;;;;;77.67;55.00;;;;;-0.18;100.00;101388.19;4979143;28;45333;-73
2024/01/14 08:02:54;;;;;;;;;68.33;49.67;;;;;-0.34;100.00;101351.44;4981340;28;54985;-73
2024/01/14 08:05:19;;;;;;;;;69.67;52.33;;;;;-0.38;100.00;101339.03;4976481;28;45487;-73
2024/01/14 08:07:45;;;;;;;;;66.00;50.00;;;;;-0.09;100.00;101390.59;4981136;28;45206;-72
2024/01/14 08:10:10;;;;;;;;;66.67;50.33;;;;;-0.36;100.00;101348.75;4978751;28;49829;-72
2024/01/14 08:12:36;;;;;;;;;102.33;72.00;;;;;0.04;100.00;101415.84;4980100;28;46929;-72
2024/01/14 08:15:01;;;;;;;;;74.00;54.00;;;;;-0.13;100.00;101383.38;4979019;28;53211;-72
2024/01/14 08:17:26;;;;;;;;;67.00;55.00;;;;;0.08;100.00;101410.06;4981522;28;45352;-72
2024/01/14 08:19:52;;;;;;;;;150.75;114.50;;;;;0.06;100.00;101396.06;4979393;28;45234;-72
2024/01/14 08:22:18;;;;;;;;;70.00;50.33;;;;;-0.20;100.00;101347.31;4981211;28;46296;-73
2024/01/14 08:24:43;;;;;;;;;65.33;46.33;;;;;-0.07;100.00;101373.44;4978032;28;45362;-73
2024/01/14 08:27:09;;;;;;;;;63.67;49.33;;;;;0.09;100.00;101392.00;4981306;28;45313;-73
2024/01/14 08:29:34;;;;;;;;;64.00;47.67;;;;;0.13;100.00;101407.03;4978421;28;44794;-73
2024/01/14 08:31:59;;;;;;;;;76.00;54.33;;;;;-0.29;100.00;101338.03;4980754;28;56684;-72
2024/01/14 08:34:25;;;;;;;;;68.33;50.00;;;;;0.04;100.00;101397.66;4975894;28;45333;-73
2024/01/14 08:36:51;;;;;;;;;69.33;48.00;;;;;-0.19;100.00;101359.53;4981211;28;45282;-73
2024/01/14 08:39:16;;;;;;;;;62.00;43.00;;;;;0.02;100.00;101396.63;4976909;28;45270;-71
2024/01/14 08:41:41;;;;;;;;;71.33;48.33;;;;;0.05;100.00;101395.16;4981065;28;46575;-72
2024/01/14 08:44:10;;;;;;;;;66.33;49.00;;;;;0.01;100.00;101377.53;4978929;28;45310;-72
2024/01/14 08:46:43;;;;;;;;;72.67;53.33;;;;;0.03;100.00;101388.94;4980733;28;45377;-73
2024/01/14 08:49:09;;;;;;;;;73.67;57.00;;;;;0.05;100.00;101395.16;4975710;28;45316;-72
2024/01/14 08:51:34;;;;;;;;;69.67;48.67;;;;;-0.09;100.00;101362.00;4979941;28;58728;-71
2024/01/14 08:54:01;;;;;;;;;71.00;51.00;;;;;-0.22;100.00;101339.41;4975443;28;50402;-71
2024/01/14 08:56:29;;;;;;;;;68.67;46.67;;;;;0.13;100.00;101399.22;4992603;28;45314;-73
2024/01/14 08:58:56;;;;;;;;;62.33;47.00;;;;;-0.07;100.00;101352.66;4976592;28;45455;-72
2024/01/14 09:01:22;;;;;;;;;72.00;48.33;;;;;0.02;100.00;101365.44;4982130;28;46468;-72
2024/01/14 09:03:47;;;;;;;;;67.33;51.33;;;;;0.16;100.00;101383.88;4977231;28;45448;-72
2024/01/14 09:06:13;;;;;;;;;73.00;56.00;;;;;0.03;100.00;101351.63;4980724;28;45416;-72
2024/01/14 09:08:38;;;;;;;;;73.33;54.00;;;;;0.19;100.00;101378.88;4977707;28;45575;-72
2024/01/14 09:11:03;;;;;;;;;63.67;46.33;;;;;0.11;100.00;101347.91;4978832;28;45339;-72
2024/01/14 09:13:29;;;;;;;;;63.33;50.67;;;;;0.10;100.00;101348.72;4978315;28;45140;-72
2024/01/14 09:15:54;;;;;;;;;74.33;52.33;;;;;0.04;100.00;101325.78;4980634;28;45270;-72
2024/01/14 09:18:19;;;;;;;;;73.33;52.33;;;;;-0.09;100.00;101300.56;4977166;28;47004;-72
2024/01/14 09:20:45;;;;;;;;;68.67;53.00;;;;;0.07;100.00;101332.91;4980014;28;45568;-72
2024/01/14 09:23:10;;;;;;;;;74.00;52.33;;;;;0.16;100.00;101347.47;4979283;28;45457;-72
2024/01/14 09:25:35;;;;;;;;;74.33;54.00;;;;;0.08;100.00;101335.59;4993387;28;45443;-72
2024/01/14 09:28:01;;;;;;;;;70.00;55.67;;;;;-0.07;100.00;101301.59;4978852;28;45474;-72
2024/01/14 09:30:26;;;;;;;;;70.00;51.67;;;;;-0.05;100.00;101306.91;4978940;28;45390;-72
2024/01/14 09:32:51;;;;;;;;;63.33;45.00;;;;;0.04;100.00;101325.78;4979915;28;45279;-72
2024/01/14 09:35:17;;;;;;;;;75.00;54.33;;;;;0.19;100.00;101336.41;4974578;28;50097;-72
2024/01/14 09:37:42;;;;;;;;;68.00;48.33;;;;;0.28;100.00;101357.91;4980159;28;45199;-72
2024/01/14 09:40:08;;;;;;;;;62.33;44.00;;;;;-0.09;100.00;101290.16;4973990;28;46011;-72
2024/01/14 09:42:34;;;;;;;;;67.33;49.33;;;;;0.14;100.00;101330.88;4980166;28;45020;-72
2024/01/14 09:45:00;;;;;;;;;64.67;49.67;;;;;0.23;100.00;101341.06;4974643;28;45451;-72
2024/01/14 09:47:26;;;;;;;;;74.00;54.00;;;;;0.26;100.00;101340.38;4979518;28;45242;-72
2024/01/14 09:49:54;;;;;;;;;68.67;49.00;;;;;0.28;100.00;101336.19;4977494;28;45463;-72
2024/01/14 09:52:21;;;;;;;;;67.67;53.33;;;;;0.37;100.00;101350.78;4978133;28;45227;-74
2024/01/14 09:54:47;;;;;;;;;68.00;49.33;;;;;0.39;100.00;101346.59;4978115;28;45510;-73
2024/01/14 09:57:17;;;;;;;;;71.33;52.33;;;;;0.25;100.00;101310.84;4979581;28;45295;-73
2024/01/14 09:59:43;;;;;;;;;65.67;50.33;;;;;0.44;100.00;101353.03;4978006;28;45734;-73
2024/01/14 10:02:11;;;;;;;;;72.33;50.33;;;;;0.31;100.00;101332.13;4987666;28;45416;-73
2024/01/14 10:04:42;;;;;;;;;77.67;55.67;;;;;0.31;100.00;101339.94;4978043;28;45290;-73
2024/01/14 10:07:09;;;;;;;;;73.33;51.67;;;;;0.29;100.00;101331.09;4979404;28;45223;-73
2024/01/14 10:09:35;;;;;;;;;70.67;53.67;;;;;0.14;100.00;101301.34;4977775;28;45686;-73
2024/01/14 10:12:00;;;;;;;;;82.00;54.67;;;;;0.44;100.00;101347.81;4979574;28;45227;-72
2024/01/14 10:14:27;;;;;;;;;62.33;47.67;;;;;0.34;100.00;101326.25;4978237;28;45466;-73
2024/01/14 10:16:58;;;;;;;;;79.00;58.00;;;;;0.31;100.00;101318.19;4979038;28;45573;-72
2024/01/14 10:19:24;;;;;;;;;65.00;52.67;;;;;0.42;100.00;101340.69;4977319;28;53754;-72
2024/01/14 10:21:54;;;;;;;;;77.67;55.00;;;;;0.50;100.00;101343.88;4978564;28;45170;-72
2024/01/14 10:24:20;;;;;;;;;69.67;54.00;;;;;0.19;100.00;101284.41;4974053;28;45399;-73
2024/01/14 10:26:46;;;;;;;;;77.33;53.67;;;;;0.30;100.00;101304.31;4976854;28;45456;-74
2024/01/14 10:29:11;;;;;;;;;86.67;60.00;;;;;0.48;100.00;101329.84;4989934;28;47158;-73
2024/01/14 10:31:36;;;;;;;;;73.00;53.33;;;;;0.34;100.00;101305.44;4979391;28;45306;-73
2024/01/14 10:34:02;;;;;;;;;65.00;46.33;;;;;0.19;100.00;101274.00;4975824;28;54011;-73
2024/01/14 10:36:31;;;;;;;;;67.00;49.00;;;;;0.59;100.00;101335.06;4976360;28;45311;-74
2024/01/14 10:38:57;;;;;;;;;68.00;54.00;;;;;0.58;100.00;101330.63;4972899;28;45450;-73
2024/01/14 10:41:24;;;;;;;;;72.00;54.00;;;;;0.48;100.00;101296.97;4978847;28;45378;-72
2024/01/14 10:43:49;;;;;;;;;58.33;44.33;;;;;0.57;100.00;101294.13;4973585;28;45488;-72
2024/01/14 10:46:15;;;;;;;;;67.67;53.33;;;;;0.57;100.00;101276.81;4978218;28;45425;-73
2024/01/14 10:48:43;;;;;;;;;72.00;49.67;;;;;0.84;100.00;101305.56;4975857;28;45419;-73
2024/01/14 10:51:10;;;;;;;;;75.33;58.67;;;;;0.92;100.00;101306.13;4977169;28;45290;-73
2024/01/14 10:53:45;;;;;;;;;67.67;54.33;;;;;0.99;100.00;101293.66;4970557;28;45389;-73
2024/01/14 10:56:15;;;;;;;;;76.00;54.00;;;;;0.87;100.00;101257.28;4976873;28;45229;-73
2024/01/14 10:58:41;;;;;;;;;74.67;56.00;;;;;1.10;100.00;101278.78;4975028;28;45631;-72